createdAt,value
2023-04-25T00:06:13.422Z,94.6
2023-04-25T00:25:24.809Z,95.6
2023-04-25T00:44:35.785Z,95.7
2023-04-25T01:03:48.547Z,94.6
2023-04-25T01:22:59.542Z,96.9
2023-04-25T01:42:10.975Z,95.2
2023-04-25T02:01:24.215Z,94.5
2023-04-25T02:20:35.575Z,97.3
2023-04-25T02:39:46.792Z,96.2
2023-04-25T02:59:00.598Z,96.8
2023-04-25T03:18:08.286Z,97.8
2023-04-25T03:37:20.688Z,97.6
2023-04-25T03:56:34.672Z,99.6
2023-04-25T04:15:46.215Z,99.1
2023-04-25T04:34:55.393Z,100
2023-04-25T04:54:12.154Z,100
2023-04-25T05:13:23.305Z,100
2023-04-25T05:32:35.876Z,97.9
2023-04-25T05:51:43.968Z,92.5
2023-04-25T06:10:58.082Z,91.9
2023-04-25T06:30:10.741Z,88.8
2023-04-25T06:49:18.436Z,90.3
2023-04-25T07:08:34.783Z,84.6
2023-04-25T07:27:49.862Z,82
2023-04-25T07:47:04.772Z,70.8
2023-04-25T08:06:08.820Z,72.8
2023-04-25T08:25:21.959Z,62.4
2023-04-25T08:44:32.729Z,61.3
2023-04-25T09:03:38.812Z,68
2023-04-25T09:22:49.900Z,66.4
2023-04-25T09:42:07.018Z,63.5
2023-04-25T10:01:15.334Z,64.6
2023-04-25T10:20:26.243Z,59.5
2023-04-25T10:39:39.190Z,56.4
2023-04-25T10:58:54.375Z,57.9
2023-04-25T11:18:02.707Z,54.3
2023-04-25T11:37:21.768Z,52.3
2023-04-25T11:56:27.697Z,59.4
2023-04-25T12:15:41.900Z,54.3
2023-04-25T12:34:59.329Z,54
2023-04-25T12:54:06.507Z,50.4
2023-04-25T13:13:17.614Z,54.6
2023-04-25T13:32:25.783Z,52.3
2023-04-25T13:51:40.580Z,53
2023-04-25T14:10:44.142Z,56.8
2023-04-25T14:30:00.852Z,57.3
2023-04-25T14:49:11.222Z,57
2023-04-25T15:08:22.690Z,52.5
2023-04-25T15:27:25.958Z,69
2023-04-25T15:46:39.406Z,63.4
2023-04-25T16:05:48.895Z,64
2023-04-25T16:25:00.748Z,59.3
2023-04-25T16:44:10.065Z,63.3
2023-04-25T17:03:25.661Z,63.8
2023-04-25T17:22:36.584Z,64.4
2023-04-25T17:41:48.587Z,59.7
2023-04-25T18:00:59.342Z,63.8
2023-04-25T18:20:06.476Z,64.1
2023-04-25T18:39:23.514Z,61.1
2023-04-25T18:58:29.166Z,61.2
2023-04-25T19:17:39.284Z,61.9
2023-04-25T19:36:50.001Z,61.4
2023-04-25T19:56:00.635Z,62.3
2023-04-25T20:15:12.371Z,64.3
2023-04-25T20:34:25.364Z,63.9
2023-04-25T20:53:32.626Z,66.4
2023-04-25T21:12:42.805Z,67
2023-04-25T21:31:51.416Z,73.9
2023-04-25T21:51:01.420Z,76.8
2023-04-25T22:10:08.285Z,79.2
2023-04-25T22:29:18.602Z,79.1
2023-04-25T22:48:28.557Z,81.7
2023-04-25T23:07:40.241Z,83.6
2023-04-25T23:26:52.291Z,82.3
2023-04-25T23:46:00.553Z,82.7
